Time;durP1;ratioP1;P1;durP2;ratioP2;P2;SDS_P1;SDS_P2;PMS_P1;PMS_P2;Temp;Humidity;BMP_temperature;BMP_pressure;BME280_temperature;BME280_humidity;BME280_pressure;Samples;Min_cycle;Max_cycle;Signal;HPM_P1;HPM_P2
2022/04/26 03:37:53;;;;;;;329.88;70.03;;;9.70;99.90;;;8.63;100.00;96895.63;4965660;28;25157;-75
2022/04/26 03:40:18;;;;;;;413.15;82.18;;;9.70;99.90;;;8.62;100.00;96894.03;4950797;28;20410;-75
2022/04/26 03:42:44;;;;;;;363.52;73.07;;;9.70;99.90;;;8.63;100.00;96889.56;4963787;28;20430;-75
2022/04/26 03:45:10;;;;;;;336.55;73.70;;;9.70;99.90;;;8.60;100.00;96898.75;4961023;28;20412;-74
2022/04/26 03:47:36;;;;;;;308.08;65.88;;;9.70;99.90;;;8.60;100.00;96897.97;4969114;28;20404;-74
2022/04/26 03:50:03;;;;;;;392.80;77.38;;;9.70;99.90;;;8.62;100.00;96896.66;4968723;28;20488;-75
2022/04/26 03:52:30;;;;;;;414.15;87.55;;;9.70;99.90;;;8.69;100.00;96897.25;4968866;28;20427;-74
2022/04/26 03:54:56;;;;;;;385.08;77.22;;;9.70;99.90;;;8.65;100.00;96895.34;4968912;28;20770;-75
2022/04/26 03:57:22;;;;;;;338.33;72.55;;;9.70;99.90;;;8.62;100.00;96894.03;4968255;28;20459;-75
2022/04/26 03:59:48;;;;;;;256.90;58.65;;;9.70;99.90;;;8.53;100.00;96893.69;4967514;28;20896;-74
2022/04/26 04:02:14;;;;;;;342.30;71.75;;;9.60;99.90;;;8.54;100.00;96900.56;4960710;28;20440;-74
2022/04/26 04:04:39;;;;;;;354.58;72.60;;;9.60;99.90;;;8.53;100.00;96911.34;4968795;28;20404;-74
2022/04/26 04:07:05;;;;;;;292.73;64.97;;;9.60;99.90;;;8.53;100.00;96914.78;4968887;28;20462;-75
2022/04/26 04:09:32;;;;;;;321.15;69.13;;;9.60;99.90;;;8.56;100.00;96916.16;4968399;28;20491;-75
2022/04/26 04:11:59;;;;;;;321.90;72.17;;;9.60;99.90;;;8.55;100.00;96917.19;4949136;28;20399;-75
2022/04/26 04:14:24;;;;;;;319.05;74.65;;;9.60;99.90;;;8.56;100.00;96917.97;4939748;28;20408;-74
2022/04/26 04:16:50;;;;;;;271.55;62.50;;;9.60;99.90;;;8.50;100.00;96925.03;4938367;29;20431;-76
2022/04/26 04:19:19;;;;;;;241.10;58.77;;;9.60;99.90;;;8.48;100.00;96927.94;4940160;29;20414;-75
2022/04/26 04:21:46;;;;;;;302.83;67.90;;;9.60;99.90;;;8.52;100.00;96926.38;4939233;29;20412;-74
2022/04/26 04:24:12;;;;;;;317.45;73.95;;;9.60;99.90;;;8.55;100.00;96930.38;4938252;29;20418;-75
2022/04/26 04:26:39;;;;;;;305.10;72.27;;;9.60;99.90;;;8.50;100.00;96930.31;4940321;29;20488;-75
2022/04/26 04:29:05;;;;;;;280.88;68.15;;;9.60;99.90;;;8.48;100.00;96932.41;4939589;28;20757;-75
2022/04/26 04:31:32;;;;;;;285.48;67.72;;;9.50;99.90;;;8.46;100.00;96932.66;4935626;29;20505;-75
2022/04/26 04:33:59;;;;;;;230.48;56.15;;;9.50;99.90;;;8.39;100.00;96933.91;4939244;29;20448;-75
2022/04/26 04:36:25;;;;;;;196.17;48.80;;;9.50;99.90;;;8.37;100.00;96939.41;4938281;28;20452;-75
2022/04/26 04:38:51;;;;;;;310.98;73.22;;;9.50;99.90;;;8.46;100.00;96945.84;4940128;29;20422;-76
2022/04/26 04:41:17;;;;;;;319.60;72.00;;;9.50;99.90;;;8.46;100.00;96950.31;4936775;28;20428;-75
2022/04/26 04:43:45;;;;;;;334.60;67.65;;;9.50;99.90;;;8.40;100.00;96941.56;4940052;29;20895;-74
2022/04/26 04:46:11;;;;;;;281.55;61.38;;;9.50;99.90;;;8.39;100.00;96939.16;4938485;28;20392;-74
2022/04/26 04:48:37;;;;;;;259.02;55.10;;;9.50;99.90;;;8.35;100.00;96930.16;4938707;29;20404;-74
2022/04/26 04:51:05;;;;;;;203.25;48.75;;;9.50;99.90;;;8.37;100.00;96928.06;4958159;22;20436;-74
2022/04/26 04:53:31;;;;;;;302.92;65.43;;;9.50;99.90;;;8.41;100.00;96937.88;4959499;28;20427;-73
2022/04/26 04:55:57;;;;;;;355.00;77.53;;;9.50;99.90;;;8.48;100.00;96933.22;4968403;28;20762;-73
2022/04/26 04:58:23;;;;;;;309.33;69.13;;;9.50;99.90;;;8.45;100.00;96919.72;4968339;28;20428;-73
2022/04/26 05:00:50;;;;;;;256.67;58.08;;;9.50;99.90;;;8.38;100.00;96927.81;4963096;28;20432;-73
2022/04/26 05:03:16;;;;;;;259.88;59.92;;;9.50;99.90;;;8.44;100.00;96934.75;4982572;28;20413;-73
2022/04/26 05:05:42;;;;;;;299.73;64.85;;;9.50;99.90;;;8.44;100.00;96934.75;4974224;28;20427;-73
2022/04/26 05:08:09;;;;;;;276.35;61.05;;;9.50;99.90;;;8.41;100.00;96935.25;4972350;28;20799;-73
2022/04/26 05:10:36;;;;;;;302.50;69.18;;;9.50;99.90;;;8.49;100.00;96934.78;4965610;28;20408;-73
2022/04/26 05:13:02;;;;;;;323.27;67.30;;;9.50;99.90;;;8.46;100.00;96935.28;4968920;28;20873;-73
2022/04/26 05:15:33;;;;;;;336.95;72.07;;;9.60;99.90;;;8.48;100.00;96929.78;4981173;28;20421;-74
2022/04/26 05:18:00;;;;;;;304.85;67.60;;;9.50;99.90;;;8.48;100.00;96937.69;4968626;28;20809;-73
2022/04/26 05:20:26;;;;;;;283.35;62.17;;;9.50;99.90;;;8.43;100.00;96933.13;4968435;28;20593;-74
2022/04/26 05:25:40;;;;;;;336.60;68.63;;;9.60;99.90;;;8.51;100.00;96924.00;4969333;28;25085;-73
2022/04/26 05:28:06;;;;;;;251.98;60.20;;;9.60;99.90;;;8.52;100.00;96930.84;4969445;28;20401;-74
2022/04/26 05:30:32;;;;;;;343.45;74.97;;;9.60;99.90;;;8.60;100.00;96940.97;4970167;28;20789;-73
2022/04/26 05:32:58;;;;;;;361.67;77.15;;;9.60;99.90;;;8.57;100.00;96946.72;4980382;28;20412;-73
2022/04/26 05:35:25;;;;;;;276.07;68.47;;;9.60;99.90;;;8.55;100.00;96948.84;4995615;28;20407;-73
2022/04/26 05:37:51;;;;;;;276.15;68.72;;;9.60;99.90;;;8.51;100.00;96945.88;5004112;28;20981;-73
2022/04/26 05:40:17;;;;;;;333.58;70.82;;;9.60;99.90;;;8.52;100.00;96944.84;4980240;28;20776;-73
2022/04/26 05:42:43;;;;;;;261.95;61.38;;;9.70;99.90;;;8.52;100.00;96942.22;4975171;28;20862;-73
2022/04/26 05:45:09;;;;;;;252.97;59.97;;;9.60;99.90;;;8.56;100.00;96949.63;4992522;28;20471;-72
2022/04/26 05:47:40;;;;;;;289.42;65.13;;;9.70;99.90;;;8.57;100.00;96954.66;4989490;28;20430;-73
2022/04/26 05:50:08;;;;;;;330.67;70.70;;;9.60;99.90;;;8.60;100.00;96964.72;4985905;28;20425;-73
2022/04/26 05:52:35;;;;;;;294.40;67.70;;;9.70;99.90;;;8.58;100.00;96956.25;4985126;28;20430;-73
2022/04/26 05:55:04;;;;;;;279.67;64.78;;;9.70;99.90;;;8.56;100.00;96960.19;4979218;28;20891;-73
2022/04/26 05:57:30;;;;;;;279.25;66.88;;;9.70;99.90;;;8.59;100.00;96957.03;4983222;28;20800;-73
2022/04/26 05:59:56;;;;;;;293.98;64.63;;;9.70;99.90;;;8.61;100.00;96965.50;4981571;28;20403;-73
2022/04/26 06:02:22;;;;;;;366.42;75.90;;;9.70;99.90;;;8.64;100.00;96957.91;4976640;28;20491;-73
2022/04/26 06:04:47;;;;;;;301.38;70.22;;;9.70;99.90;;;8.63;100.00;96961.59;4969616;28;20416;-74
2022/04/26 06:07:13;;;;;;;284.13;62.10;;;9.70;99.90;;;8.70;100.00;96964.81;4976084;28;20426;-74
2022/04/26 06:09:40;;;;;;;322.45;69.97;;;9.70;99.90;;;8.77;100.00;96977.81;4990664;28;20427;-72
2022/04/26 06:12:08;;;;;;;315.27;69.63;;;9.80;99.90;;;8.78;100.00;96967.03;4981775;28;21068;-74
2022/04/26 06:14:34;;;;;;;290.08;68.05;;;9.80;99.90;;;8.84;100.00;96970.50;4984361;28;20414;-74
2022/04/26 06:17:00;;;;;;;278.15;62.35;;;9.90;99.90;;;8.86;100.00;96969.22;4984752;28;20792;-74
2022/04/26 06:19:26;;;;;;;252.50;62.50;;;9.90;99.90;;;8.88;100.00;96969.72;4969767;28;20438;-73
2022/04/26 06:21:52;;;;;;;289.30;65.50;;;9.90;99.90;;;8.87;100.00;96975.28;4968870;28;20847;-73
2022/04/26 06:24:18;;;;;;;309.48;64.57;;;10.00;99.90;;;8.90;100.00;96977.41;4970175;28;20459;-73
2022/04/26 06:26:45;;;;;;;247.30;58.03;;;10.00;99.90;;;8.97;100.00;96975.34;4979178;28;20403;-74
2022/04/26 06:29:11;;;;;;;360.67;76.65;;;10.00;99.90;;;9.00;100.00;96987.28;4988262;28;20496;-74
2022/04/26 06:31:37;;;;;;;273.48;62.10;;;10.00;99.90;;;9.01;100.00;96986.22;4968486;28;20933;-74
2022/04/26 06:34:03;;;;;;;303.30;65.38;;;10.10;99.90;;;9.00;100.00;96993.34;4968171;28;20902;-74
2022/04/26 06:36:29;;;;;;;249.30;62.30;;;10.00;99.90;;;8.97;100.00;96985.91;4961368;28;20414;-74
2022/04/26 06:38:55;;;;;;;281.70;65.80;;;10.00;99.90;;;8.98;100.00;96981.44;4966866;28;20428;-74
2022/04/26 06:41:21;;;;;;;353.90;75.30;;;10.00;99.90;;;9.00;100.00;96982.00;4967153;28;20424;-74
2022/04/26 06:43:48;;;;;;;286.17;64.68;;;10.00;99.90;;;9.03;100.00;96992.81;4972478;28;20419;-75
2022/04/26 06:46:14;;;;;;;312.60;68.55;;;10.10;99.90;;;9.03;100.00;96990.19;4968062;28;20405;-74
2022/04/26 06:48:41;;;;;;;186.68;54.15;;;10.10;99.90;;;9.03;100.00;96986.75;4967565;28;20419;-74
2022/04/26 06:51:07;;;;;;;259.73;59.55;;;10.00;99.90;;;9.05;100.00;96980.19;4964522;28;20426;-73
2022/04/26 06:53:34;;;;;;;217.80;54.97;;;10.10;99.90;;;9.15;100.00;96988.19;4966151;28;20486;-74
2022/04/26 06:56:00;;;;;;;300.33;63.85;;;10.20;99.90;;;9.25;100.00;96992.75;4966693;28;20456;-72
2022/04/26 06:58:26;;;;;;;277.45;63.53;;;10.30;99.90;;;9.32;100.00;96996.00;4967910;28;20505;-72
2022/04/26 07:00:53;;;;;;;231.30;55.33;;;10.40;99.90;;;9.38;100.00;97004.75;4967416;28;20420;-72
2022/04/26 07:03:20;;;;;;;272.30;61.50;;;10.40;99.90;;;9.41;100.00;96998.94;4975054;28;20419;-74
2022/04/26 07:05:47;;;;;;;219.97;51.97;;;10.40;99.90;;;9.48;100.00;96997.69;4975984;28;20534;-73
2022/04/26 07:08:13;;;;;;;233.50;55.60;;;10.50;99.90;;;9.60;100.00;96992.25;4980073;28;20465;-73
2022/04/26 07:10:41;;;;;;;133.27;45.13;;;10.60;99.90;;;9.68;100.00;96997.06;4981299;28;20618;-73
2022/04/26 07:13:07;;;;;;;246.55;58.55;;;10.70;99.90;;;9.68;100.00;96992.56;4955711;28;20928;-71
2022/04/26 07:15:33;;;;;;;203.52;51.08;;;10.70;99.90;;;9.59;100.00;96991.44;4950890;28;20420;-71
2022/04/26 07:18:00;;;;;;;173.73;45.85;;;10.60;99.90;;;9.61;100.00;96984.06;4952037;28;20427;-70
2022/04/26 07:20:31;;;;;;;154.50;42.17;;;10.60;99.90;;;9.62;100.00;96979.59;4943636;28;20733;-70
2022/04/26 07:22:57;;;;;;;217.68;51.78;;;10.60;99.90;;;9.57;100.00;96976.88;4955486;28;20420;-70
2022/04/26 07:25:23;;;;;;;171.55;45.90;;;10.60;99.90;;;9.66;100.00;96970.88;4954602;28;21012;-71
2022/04/26 07:27:49;;;;;;;185.65;47.45;;;10.60;99.90;;;9.79;100.00;96968.81;4967917;28;20503;-70
2022/04/26 07:30:15;;;;;;;152.05;42.78;;;10.80;99.90;;;9.95;100.00;96967.84;4967588;28;20903;-73
2022/04/26 07:35:27;;;;;;;119.85;35.58;;;11.10;99.90;;;10.27;100.00;96971.22;4968241;28;20416;-73
2022/04/26 07:37:52;;;;;;;146.68;39.60;;;11.30;99.90;;;10.22;100.00;96973.84;4966668;28;20424;-70
2022/04/26 07:40:19;;;;;;;103.60;32.43;;;11.20;99.90;;;10.26;100.00;96979.41;4963110;28;21043;-70
2022/04/26 07:42:45;;;;;;;86.22;32.20;;;11.20;99.90;;;10.27;100.00;96988.94;4969584;28;20501;-71
2022/04/26 07:45:12;;;;;;;98.05;34.05;;;11.30;99.90;;;9.97;100.00;96977.13;4973370;28;20515;-71
2022/04/26 07:47:38;;;;;;;119.40;38.85;;;11.00;99.90;;;9.95;100.00;96979.22;4959965;28;20512;-70
2022/04/26 07:50:05;;;;;;;128.25;38.53;;;10.90;99.90;;;9.93;100.00;96985.81;4969716;28;20545;-69
2022/04/26 07:52:33;;;;;;;111.82;37.15;;;10.90;99.90;;;9.83;100.00;96985.78;4979129;28;20426;-71
2022/04/26 07:54:59;;;;;;;146.98;42.08;;;10.90;99.90;;;9.78;100.00;96993.66;4972447;28;20422;-70
2022/04/26 07:57:25;;;;;;;125.38;41.33;;;10.80;99.90;;;9.76;100.00;96999.22;4966116;28;20485;-70
2022/04/26 07:59:51;;;;;;;147.65;42.17;;;10.70;99.90;;;9.71;100.00;96992.03;4975853;28;20808;-74
2022/04/26 08:02:17;;;;;;;97.33;38.47;;;10.80;99.90;;;9.31;100.00;97002.34;4972301;28;20422;-72
2022/04/26 08:04:42;;;;;;;116.43;39.05;;;10.60;99.90;;;9.53;100.00;97018.09;4978778;28;20501;-71
2022/04/26 08:07:08;;;;;;;118.88;37.33;;;10.60;99.90;;;9.74;100.00;97029.59;4968426;28;20512;-71
2022/04/26 08:09:38;;;;;;;155.20;42.67;;;10.70;99.90;;;9.88;100.00;97025.47;4974198;28;20509;-71
2022/04/26 08:12:05;;;;;;;113.83;36.97;;;10.90;99.90;;;9.96;100.00;97027.63;4972181;28;20480;-72
2022/04/26 08:14:31;;;;;;;83.95;33.65;;;10.90;99.90;;;9.70;100.00;97030.09;4967096;28;20418;-72
2022/04/26 08:16:57;;;;;;;76.75;30.95;;;10.90;99.90;;;9.83;100.00;97044.72;4973484;28;20416;-72
2022/04/26 08:19:23;;;;;;;98.18;32.65;;;10.80;99.90;;;9.82;100.00;97042.34;4973950;28;20423;-71
2022/04/26 08:21:49;;;;;;;103.78;33.92;;;10.80;99.90;;;9.96;100.00;97046.94;4965950;28;20456;-73
2022/04/26 08:29:46;;;;;;;72.97;29.70;;;11.30;99.90;;;10.19;100.00;97050.25;4967996;28;20416;-72
2022/04/26 08:32:13;;;;;;;110.45;34.80;;;11.10;99.90;;;10.29;100.00;97060.91;4967698;28;20448;-73
2022/04/26 08:34:39;;;;;;;57.35;26.27;;;11.30;99.90;;;10.32;100.00;97060.38;4968197;28;20462;-71
2022/04/26 08:37:05;;;;;;;72.37;28.33;;;11.30;99.90;;;10.32;100.00;97060.38;4967696;28;20420;-73
2022/04/26 08:39:31;;;;;;;66.65;26.10;;;11.40;99.90;;;10.63;100.00;97066.59;4967856;28;20832;-73
2022/04/26 08:41:57;;;;;;;62.97;26.35;;;11.50;99.90;;;10.75;100.00;97067.19;4967465;28;20424;-73
2022/04/26 08:44:26;;;;;;;66.60;25.90;;;11.70;99.90;;;10.88;100.00;97069.34;4974040;28;20429;-73
2022/04/26 08:52:23;;;;;;;69.03;27.50;;;11.70;99.90;;;10.79;100.00;97082.28;4966551;28;20436;-71
2022/04/26 08:54:49;;;;;;;44.30;22.42;;;11.70;99.90;;;10.79;100.00;97086.78;4971103;28;20806;-73
2022/04/26 08:57:15;;;;;;;53.15;24.13;;;11.70;99.90;;;10.79;100.00;97089.44;4971148;28;20420;-73
2022/04/26 08:59:47;;;;;;;43.00;21.10;;;11.80;99.90;;;10.97;100.00;97080.25;4971089;28;20759;-74
2022/04/26 09:02:18;;;;;;;37.83;20.63;;;11.90;99.90;;;10.94;100.00;97088.69;4969935;28;20964;-72
2022/04/26 09:04:44;;;;;;;37.23;19.97;;;11.90;99.90;;;10.92;100.00;97094.25;4970329;28;20496;-71
2022/04/26 09:07:11;;;;;;;34.03;19.13;;;11.90;99.90;;;10.55;100.00;97093.56;4971247;28;20499;-72
2022/04/26 09:09:39;;;;;;;32.80;18.00;;;11.60;99.90;;;10.55;100.00;97090.91;4969727;28;20427;-72
2022/04/26 09:12:10;;;;;;;42.15;20.42;;;11.50;99.90;;;10.69;100.00;97092.03;4970381;28;20416;-71
2022/04/26 09:14:39;;;;;;;41.22;21.08;;;11.70;99.90;;;10.71;100.00;97097.88;4971398;28;20902;-73
2022/04/26 09:17:08;;;;;;;38.83;18.48;;;11.70;99.90;;;10.76;100.00;97098.69;4970228;28;20913;-74
2022/04/26 09:19:47;;;;;;;39.70;19.73;;;11.60;99.90;;;10.66;100.00;97098.66;4970555;28;20428;-72
2022/04/26 09:22:18;;;;;;;27.63;17.25;;;11.80;99.90;;;10.66;100.00;97106.59;4970452;28;20436;-73
2022/04/26 09:24:56;;;;;;;29.90;16.73;;;11.60;99.90;;;10.81;100.00;97111.16;4958727;28;20510;-74
2022/04/26 09:27:23;;;;;;;29.42;17.15;;;11.70;99.90;;;10.82;100.00;97100.31;4969217;28;20452;-74
2022/04/26 09:29:49;;;;;;;26.00;16.33;;;11.80;99.90;;;10.76;100.00;97100.53;4995594;28;20416;-74
2022/04/26 09:32:16;;;;;;;25.52;16.00;;;11.80;99.90;;;11.11;100.00;97100.69;4968107;28;20428;-71
2022/04/26 09:34:42;;;;;;;26.58;15.43;;;11.90;99.90;;;11.32;100.00;97106.00;4966241;28;20417;-71
2022/04/26 09:37:08;;;;;;;19.97;14.63;;;12.20;99.90;;;10.63;100.00;97119.53;4980487;28;20930;-71
2022/04/26 09:39:34;;;;;;;20.75;14.05;;;11.90;99.90;;;10.86;100.00;97109.34;4988699;28;20426;-71
2022/04/26 09:42:00;;;;;;;21.65;14.55;;;11.90;99.90;;;11.36;100.00;97115.03;4989123;28;20888;-71
2022/04/26 09:44:31;;;;;;;22.10;14.43;;;12.20;99.90;;;11.49;100.00;97109.22;4989970;28;20463;-71
2022/04/26 09:46:57;;;;;;;18.73;12.97;;;12.40;99.90;;;11.23;100.00;97109.19;4990087;28;20444;-71
2022/04/26 09:49:26;;;;;;;22.02;14.30;;;12.20;99.90;;;11.59;100.00;97104.72;4990452;28;20495;-71
2022/04/26 09:51:56;;;;;;;18.40;12.80;;;12.40;99.90;;;12.11;100.00;97101.03;4989912;28;20407;-71
2022/04/26 09:54:22;;;;;;;17.60;12.32;;;12.90;99.90;;;12.31;100.00;97111.63;4989431;28;20427;-71
2022/04/26 09:56:49;;;;;;;17.83;11.55;;;13.10;99.90;;;12.20;100.00;97107.38;4990307;28;20410;-72
2022/04/26 09:59:27;;;;;;;17.17;11.10;;;13.10;99.90;;;12.37;96.35;97099.94;4990063;28;20422;-71
2022/04/26 10:01:56;;;;;;;14.18;10.93;;;13.20;99.90;;;12.67;99.09;97100.91;4968363;28;20424;-70
2022/04/26 10:04:26;;;;;;;16.10;10.32;;;13.50;99.90;;;12.30;98.84;97099.41;4972348;28;20421;-70
2022/04/26 10:07:00;;;;;;;13.13;9.35;;;13.60;99.90;;;12.53;96.05;97102.56;4971219;28;20404;-70
2022/04/26 10:09:27;;;;;;;18.77;9.65;;;13.50;99.90;;;12.08;91.65;97108.75;4970229;28;20499;-71
2022/04/26 10:11:56;;;;;;;14.52;9.50;;;13.00;99.90;;;12.13;95.17;97104.22;4970156;28;20466;-70
2022/04/26 10:14:24;;;;;;;17.48;9.85;;;13.00;99.90;;;12.44;97.24;97106.81;4972448;28;21130;-70
2022/04/26 10:16:50;;;;;;;13.85;9.40;;;13.30;99.90;;;11.76;93.53;97099.19;4979882;28;20418;-70
2022/04/26 10:19:16;;;;;;;16.02;10.02;;;13.00;99.90;;;12.05;94.39;97102.09;4981527;28;20423;-71
2022/04/26 10:21:47;;;;;;;16.83;10.00;;;12.90;99.90;;;12.77;98.14;97106.19;4987871;28;20526;-71
2022/04/26 10:24:18;;;;;;;10.32;7.47;;;13.50;99.90;;;13.74;98.84;97106.47;4970554;28;20427;-72
2022/04/26 10:26:44;;;;;;;9.20;6.85;;;14.40;99.90;;;13.99;94.66;97111.56;4970556;28;20491;-72
2022/04/26 10:29:21;;;;;;;7.25;5.70;;;15.00;99.90;;;14.38;92.91;97102.69;4967013;28;20416;-69
2022/04/26 10:31:49;;;;;;;8.35;5.05;;;15.20;99.90;;;15.20;96.52;97106.03;4964419;28;20474;-72
2022/04/26 10:34:31;;;;;;;10.87;5.33;;;15.90;99.90;;;14.68;88.45;97105.88;4963414;28;20941;-72
2022/04/26 10:37:22;;;;;;;9.10;5.43;;;15.90;99.90;;;15.01;86.79;97098.81;4965607;28;20405;-72
2022/04/26 10:39:59;;;;;;;6.90;4.97;;;15.80;99.90;;;15.87;81.59;97092.25;4983733;28;20834;-72
2022/04/26 10:42:28;;;;;;;6.53;4.72;;;16.50;99.90;;;16.35;84.99;97091.97;4969893;28;20409;-72
2022/04/26 10:44:59;;;;;;;8.68;5.10;;;17.10;99.90;;;16.02;75.64;97103.75;4968008;28;20429;-72
2022/04/26 10:47:29;;;;;;;7.88;4.53;;;17.00;99.90;;;16.39;79.15;97102.88;4965767;28;20468;-72
2022/04/26 10:49:58;;;;;;;5.53;4.23;;;17.10;99.90;;;16.48;68.92;97085.84;4969495;28;20495;-74
2022/04/26 10:52:36;;;;;;;6.97;3.90;;;17.30;97.60;;;15.88;70.13;97101.06;4981634;23;20782;-77
2022/04/26 10:55:08;;;;;;;9.32;4.15;;;17.00;93.30;;;15.65;69.02;97104.63;4969600;28;20420;-77
2022/04/26 10:57:36;;;;;;;5.60;3.85;;;16.60;94.40;;;16.22;64.12;97098.91;4969306;28;20416;-78
2022/04/26 11:00:06;;;;;;;4.40;3.08;;;17.00;83.50;;;18.00;69.66;97092.53;4969226;28;20466;-76
2022/04/26 11:02:35;;;;;;;4.57;3.40;;;18.40;99.90;;;18.55;62.70;97088.41;4953255;28;20418;-77
2022/04/26 11:05:04;;;;;;;4.80;3.17;;;19.30;93.00;;;20.09;64.51;97100.47;4949058;28;20710;-77
2022/04/26 11:07:31;;;;;;;3.60;2.58;;;20.70;93.10;;;20.56;56.73;97105.94;4949911;28;20980;-77
2022/04/26 11:09:59;;;;;;;5.97;2.88;;;21.40;71.20;;;18.78;45.75;97117.88;4949985;28;20422;-78
2022/04/26 11:12:29;;;;;;;5.70;2.70;;;20.90;47.70;;;20.76;46.24;97117.88;4949735;28;20422;-77
2022/04/26 11:14:57;;;;;;;5.80;2.50;;;21.70;53.30;;;21.26;47.70;97117.97;4950313;28;20416;-76
2022/04/26 11:17:24;;;;;;;5.57;3.95;;;22.00;61.50;;;20.49;49.95;97129.84;4949934;28;20414;-80
2022/04/26 11:19:53;;;;;;;6.43;5.38;;;21.80;58.00;;;20.11;51.64;97143.16;4949679;28;21003;-81
2022/04/26 11:22:20;;;;;;;8.50;6.30;;;21.30;66.20;;;18.45;54.13;97149.53;4950081;28;20410;-79
2022/04/26 11:30:28;;;;;;;7.93;5.70;;;19.10;91.60;;;19.47;61.71;97159.09;4950010;28;20417;-82
2022/04/26 11:32:56;;;;;;;10.23;6.18;;;20.20;89.50;;;19.18;57.21;97159.63;4951472;28;20857;-82
2022/04/26 11:35:22;;;;;;;11.37;7.17;;;20.50;77.30;;;19.55;61.57;97176.31;4948830;28;20506;-85
2022/04/26 11:37:53;;;;;;;9.07;6.82;;;20.40;86.00;;;19.40;60.60;97161.44;4945158;28;20418;-79
2022/04/26 11:40:25;;;;;;;9.23;6.78;;;20.30;87.60;;;18.50;62.19;97163.59;4974838;28;20419;-80
2022/04/26 11:42:53;;;;;;;9.55;7.10;;;19.70;89.20;;;17.70;66.12;97163.66;4955172;28;20484;-83
2022/04/26 11:45:20;;;;;;;9.35;7.35;;;18.80;90.30;;;17.33;68.93;97160.13;4961913;28;20853;-83
2022/04/26 11:47:48;;;;;;;9.43;7.45;;;18.40;97.20;;;16.59;69.50;97161.28;4955536;28;20922;-83
2022/04/26 11:50:18;;;;;;;9.90;8.43;;;17.60;96.30;;;16.16;68.97;97163.38;4954403;28;20410;-82
2022/04/26 11:52:45;;;;;;;7.93;6.53;;;17.10;96.90;;;17.11;66.68;97159.25;4940315;28;20427;-79
2022/04/26 11:55:27;;;;;;;10.43;5.57;;;17.80;96.10;;;18.55;68.01;97163.47;4934310;28;20412;-82
2022/04/26 11:58:16;;;;;;;5.78;4.57;;;19.10;96.70;;;20.53;63.46;97163.03;4975611;28;20422;-84
2022/04/26 12:00:57;;;;;;;4.78;3.15;;;21.00;93.90;;;21.91;63.22;97163.13;4943404;28;20423;-84
2022/04/26 12:03:26;;;;;;;4.28;3.53;;;22.40;92.30;;;22.99;58.27;97163.84;4945948;28;20467;-77
2022/04/26 12:05:56;;;;;;;4.97;4.22;;;23.70;88.70;;;22.24;56.14;97175.91;4945060;28;20430;-79
2022/04/26 12:08:23;;;;;;;8.05;5.13;;;23.20;79.50;;;19.11;53.48;97161.19;4948210;28;20465;-81
2022/04/26 12:10:49;;;;;;;10.82;5.35;;;21.10;60.60;;;17.94;61.57;97174.09;4937828;28;20476;-79
2022/04/26 12:13:30;;;;;;;7.07;4.93;;;19.20;76.60;;;17.59;57.66;97168.41;4947597;28;21079;-78
2022/04/26 12:15:57;;;;;;;8.70;5.53;;;18.50;81.90;;;17.34;63.25;97169.75;4944920;28;20821;-77
2022/04/26 12:18:23;;;;;;;8.38;5.72;;;18.30;93.20;;;17.04;62.05;97173.03;4941891;28;20449;-79
2022/04/26 12:21:00;;;;;;;7.90;6.90;;;17.90;90.20;;;16.71;65.38;97187.56;4937699;28;20424;-81
2022/04/26 12:23:28;;;;;;;8.30;7.00;;;17.70;91.70;;;16.61;69.29;97178.63;4945108;28;20418;-78
2022/04/26 12:25:56;;;;;;;10.68;7.22;;;17.50;97.50;;;16.38;76.73;97192.13;4949190;28;20424;-77
2022/04/26 12:28:24;;;;;;;9.38;7.82;;;17.30;99.90;;;15.35;67.63;97194.63;4963507;28;20695;-77
2022/04/26 12:30:50;;;;;;;9.70;8.00;;;16.80;81.10;;;15.13;72.70;97193.56;4958372;28;20424;-85
2022/04/26 12:33:30;;;;;;;9.82;7.70;;;16.10;98.40;;;15.15;75.54;97204.75;4953278;28;20475;-78
2022/04/26 12:36:01;;;;;;;11.18;8.55;;;16.00;99.90;;;13.96;70.72;97213.28;4957173;28;20783;-78
2022/04/26 12:38:27;;;;;;;11.57;8.98;;;15.40;90.60;;;14.00;74.03;97224.94;4953873;28;20424;-81
2022/04/26 12:41:05;;;;;;;14.73;9.13;;;14.90;99.90;;;13.32;80.33;97214.13;4956717;28;20954;-79
2022/04/26 12:43:33;;;;;;;24.92;10.02;;;14.50;99.90;;;12.86;83.23;97218.78;4940693;28;20941;-84
2022/04/26 12:46:02;;;;;;;17.25;9.75;;;14.00;99.90;;;11.99;87.15;97230.50;4948803;28;20544;-76
2022/04/26 12:51:20;;;;;;;22.80;13.20;;;13.00;99.90;;;11.32;91.82;97233.22;4950934;28;20420;-75
2022/04/26 12:53:49;;;;;;;39.88;17.60;;;12.40;99.90;;;11.52;95.22;97239.38;4949014;28;20946;-77
2022/04/26 12:56:16;;;;;;;42.13;19.50;;;12.50;99.90;;;11.40;97.05;97256.56;4962817;28;20753;-76
2022/04/26 12:58:46;;;;;;;58.60;22.75;;;12.50;99.90;;;11.27;97.84;97251.75;4951577;28;20890;-83
2022/04/26 13:01:13;;;;;;;60.25;25.95;;;12.40;99.90;;;11.35;98.62;97256.56;4963199;28;20422;-77
2022/04/26 13:03:41;;;;;;;65.45;27.63;;;12.40;99.90;;;11.09;99.28;97256.41;4945484;28;20761;-78
2022/04/26 13:06:12;;;;;;;92.07;32.20;;;12.30;99.90;;;11.72;99.92;97256.41;4949871;28;20446;-77
2022/04/26 13:08:40;;;;;;;94.22;35.03;;;12.70;99.90;;;12.68;100.00;97252.03;4948466;28;20441;-78
2022/04/26 13:11:07;;;;;;;33.00;18.63;;;13.60;99.90;;;14.07;100.00;97256.56;4947736;28;20441;-80
2022/04/26 13:13:35;;;;;;;11.70;8.38;;;14.80;99.90;;;15.43;100.00;97251.88;4948048;28;20410;-78
2022/04/26 13:16:04;;;;;;;4.43;4.03;;;16.10;99.90;;;16.10;100.00;97260.63;4944543;28;20784;-77
2022/04/26 13:18:29;;;;;;;6.20;3.65;;;17.00;99.90;;;16.52;100.00;97249.84;4960653;28;20489;-79
2022/04/26 13:20:57;;;;;;;3.30;3.00;;;17.50;99.90;;;16.51;100.00;97252.81;4954022;28;20504;-79
2022/04/26 13:23:24;;;;;;;7.88;3.33;;;17.50;99.90;;;16.39;97.37;97255.91;4959884;28;20413;-79
2022/04/26 13:25:51;;;;;;;5.30;3.10;;;17.30;99.90;;;16.14;92.11;97245.66;4953281;28;20435;-78
2022/04/26 13:28:17;;;;;;;5.00;3.60;;;17.10;99.90;;;16.01;92.37;97241.03;4948296;28;20954;-79
2022/04/26 13:30:44;;;;;;;5.38;3.90;;;16.80;99.90;;;15.57;87.67;97250.13;4950709;28;20655;-77
2022/04/26 13:33:13;;;;;;;5.13;3.67;;;16.70;99.90;;;15.43;89.58;97249.22;4950176;28;20845;-79
2022/04/26 13:35:39;;;;;;;5.15;3.83;;;16.40;99.90;;;15.41;90.58;97246.06;4947442;28;20493;-85
2022/04/26 13:38:10;;;;;;;4.30;3.58;;;16.30;99.90;;;15.83;91.77;97234.59;4952257;28;20781;-75
2022/04/26 13:40:37;;;;;;;5.07;3.08;;;16.60;99.90;;;16.61;90.63;97232.06;4951284;28;20436;-76
2022/04/26 13:43:04;;;;;;;3.42;2.50;;;17.30;99.90;;;17.37;87.02;97233.34;4951814;28;20414;-77
2022/04/26 13:45:32;;;;;;;2.65;2.22;;;18.10;99.90;;;17.78;81.25;97240.59;4950014;28;20795;-80
2022/04/26 13:47:59;;;;;;;2.50;2.30;;;18.80;99.90;;;18.59;83.86;97241.41;4952059;28;20421;-79
2022/04/26 13:50:26;;;;;;;2.75;2.10;;;19.40;99.90;;;18.40;67.49;97241.59;4951420;28;20458;-80
2022/04/26 13:52:52;;;;;;;3.10;2.00;;;19.60;93.00;;;18.34;68.40;97250.06;4951801;28;20479;-77
2022/04/26 13:55:19;;;;;;;2.30;1.70;;;19.50;89.50;;;19.68;70.59;97239.88;4954460;28;20911;-77
2022/04/26 13:57:45;;;;;;;2.33;1.95;;;20.40;98.00;;;19.81;58.56;97243.53;4957647;28;20426;-79
2022/04/26 14:00:13;;;;;;;2.88;1.60;;;21.20;66.60;;;20.83;62.53;97252.69;4953169;28;20902;-80
2022/04/26 14:02:41;;;;;;;1.55;1.45;;;21.50;86.80;;;22.07;53.94;97246.94;4950536;28;20434;-80
2022/04/26 14:05:08;;;;;;;2.20;1.80;;;22.90;65.70;;;21.98;54.63;97246.19;4955401;28;20424;-83
2022/04/26 14:07:36;;;;;;;4.15;1.55;;;23.00;66.90;;;22.42;49.73;97244.72;4957101;28;20491;-84
2022/04/26 14:10:05;;;;;;;2.67;1.75;;;23.30;60.50;;;23.07;57.92;97248.56;4962227;28;20420;-83
2022/04/26 14:12:31;;;;;;;3.30;2.30;;;23.70;77.30;;;22.17;53.81;97251.94;4962746;28;20774;-83